Aviation Digital Data Service (ADDS)

Output produced by METARs form (0505 UTC 21 January 2019)
found at http://www.aviationweather.gov/metar/data/
 
Forecast for: RPLL (NINOY AQUINO INT, PH)
Text: TAF RPLL 210500Z 2106/2212 08006KT 9999 SCT023 BKN090 TX30/2106Z TN24/2122Z
Forecast period: 0600 UTC 21 January 2019 to 1200 UTC 22 January 2019
Forecast type: FROM: standard forecast or significant change
Winds: from the E (80 degrees) at 7 MPH (6 knots; 3.1 m/s)
Visibility: 6 or more miles 10+ km)
Ceiling: 9000 feet AGL
Clouds: scattered clouds at 2300 feet AGL
broken clouds at 9000 feet AGL
Weather: no significant weather forecast for this period
Text: TEMPO 2106/2112 10012KT -SHRA SCT023 OVC090
Forecast period: 0600 to 1200 UTC 21 January 2019
Forecast type: TEMPORARY: The following changes expected for less than half the time period
Winds: from the E (100 degrees) at 14 MPH (12 knots; 6.2 m/s)
Visibility: missing
Ceiling: 9000 feet AGL
Clouds: scattered clouds at 2300 feet AGL
overcast cloud deck at 9000 feet AGL
Weather: -SHRA  (light rain showers)
Text: TEMPO 2112/2118 VRB03KT VCSH
Forecast period: 1200 to 1800 UTC 21 January 2019
Forecast type: TEMPORARY: The following changes expected for less than half the time period
Winds: variable direction winds at 3 MPH (3 knots; 1.5 m/s)
Visibility: missing
Ceiling: unknown
Clouds: missing
Weather: VCSH  (showers in vicinity)